createdAt,value
2023-05-22T00:01:46.816Z,93922.84
2023-05-22T00:04:13.683Z,93917.34
2023-05-22T00:06:43.674Z,93921.53
2023-05-22T00:09:10.363Z,93904.41
2023-05-22T00:11:37.097Z,93914.53
2023-05-22T00:14:03.908Z,93915.22
2023-05-22T00:16:30.756Z,93899.78
2023-05-22T00:18:57.769Z,93899.06
2023-05-22T00:21:24.756Z,93913.03
2023-05-22T00:23:51.511Z,93904.53
2023-05-22T00:26:18.219Z,93906.53
2023-05-22T00:28:44.877Z,93904.63
2023-05-22T00:31:11.601Z,93914.28
2023-05-22T00:33:38.402Z,93905.66
2023-05-22T00:36:05.673Z,93893.06
2023-05-22T00:38:34.812Z,93909.69
2023-05-22T00:41:02.760Z,93899.56
2023-05-22T00:43:29.725Z,93907.69
2023-05-22T00:45:56.698Z,93911.56
2023-05-22T00:48:24.208Z,93905.38
2023-05-22T00:50:51.893Z,93912.25
2023-05-22T00:53:23.490Z,93901.38
2023-05-22T00:55:51.355Z,93899.75
2023-05-22T00:58:18.542Z,93905.16
2023-05-22T01:00:46.802Z,93887.28
2023-05-22T01:03:14.873Z,93885.72
2023-05-22T01:05:42.039Z,93895.84
2023-05-22T01:08:09.322Z,93886.50
2023-05-22T01:10:38.773Z,93895.81
2023-05-22T01:13:11.741Z,93900.81
2023-05-22T01:15:47.593Z,93900.28
2023-05-22T01:18:25.105Z,93902.16
2023-05-22T01:20:55.134Z,93888.50
2023-05-22T01:23:37.359Z,93899.63
2023-05-22T01:26:22.486Z,93891.06
2023-05-22T01:29:07.424Z,93905.66
2023-05-22T01:31:39.423Z,93902.97
2023-05-22T01:34:07.492Z,93908.38
2023-05-22T01:36:37.392Z,93898.25
2023-05-22T01:39:06.485Z,93910.19
2023-05-22T01:41:34.373Z,93905.94
2023-05-22T01:44:02.137Z,93911.38
2023-05-22T01:46:30.396Z,93909.41
2023-05-22T01:48:58.348Z,93921.28
2023-05-22T01:51:31.686Z,93926.97
2023-05-22T01:54:14.907Z,93933.00
2023-05-22T01:56:54.977Z,93919.00
2023-05-22T01:59:32.130Z,93915.00
2023-05-22T02:02:06.189Z,93923.22
2023-05-22T02:04:38.115Z,93918.97
2023-05-22T02:07:06.654Z,93924.78
2023-05-22T02:09:35.071Z,93915.41
2023-05-22T02:12:03.110Z,93921.06
2023-05-22T02:14:30.745Z,93930.13
2023-05-22T02:16:58.134Z,93931.75
2023-05-22T02:19:26.724Z,93925.75
2023-05-22T02:21:53.691Z,93928.00
2023-05-22T02:24:20.644Z,93923.81
2023-05-22T02:26:48.118Z,93929.53
2023-05-22T02:29:15.330Z,93932.09
2023-05-22T02:31:42.263Z,93923.88
2023-05-22T02:34:09.069Z,93921.97
2023-05-22T02:36:37.418Z,93918.91
2023-05-22T02:39:05.222Z,93923.59
2023-05-22T02:41:32.394Z,93929.00
2023-05-22T02:43:59.121Z,93926.72
2023-05-22T02:46:26.315Z,93923.19
2023-05-22T02:48:53.043Z,93912.31
2023-05-22T02:51:19.786Z,93921.91
2023-05-22T02:53:46.513Z,93918.38
2023-05-22T02:56:13.245Z,93923.28
2023-05-22T02:58:40.011Z,93918.97
2023-05-22T03:01:09.039Z,93917.81
2023-05-22T03:03:36.005Z,93913.06
2023-05-22T03:06:04.294Z,93920.31
2023-05-22T03:08:32.938Z,93921.09
2023-05-22T03:11:00.504Z,93918.34
2023-05-22T03:13:27.310Z,93927.63
2023-05-22T03:15:54.053Z,93926.78
2023-05-22T03:18:21.909Z,93921.22
2023-05-22T03:20:48.902Z,93927.31
2023-05-22T03:23:15.776Z,93930.34
2023-05-22T03:25:42.580Z,93926.88
2023-05-22T03:28:09.451Z,93922.19
2023-05-22T03:30:39.850Z,93928.00
2023-05-22T03:33:16.272Z,93925.75
2023-05-22T03:35:44.655Z,93930.72
2023-05-22T03:38:11.747Z,93926.03
2023-05-22T03:40:38.762Z,93920.25
2023-05-22T03:43:05.982Z,93923.63
2023-05-22T03:45:32.708Z,93924.78
2023-05-22T03:47:59.871Z,93924.00
2023-05-22T03:50:26.612Z,93922.09
2023-05-22T03:52:53.302Z,93915.56
2023-05-22T03:55:20.041Z,93924.00
2023-05-22T03:57:46.746Z,93927.91
2023-05-22T04:00:14.077Z,93926.81
2023-05-22T04:02:44.908Z,93936.59
2023-05-22T04:05:12.090Z,93936.00
2023-05-22T04:07:38.824Z,93933.03
2023-05-22T04:10:06.408Z,93937.63
2023-05-22T04:12:33.495Z,93948.75
2023-05-22T04:15:00.218Z,93940.78
2023-05-22T04:17:32.578Z,93940.22
2023-05-22T04:20:00.424Z,93939.22
2023-05-22T04:22:27.779Z,93931.84
2023-05-22T04:24:54.522Z,93933.31
2023-05-22T04:27:22.625Z,93935.25
2023-05-22T04:29:50.524Z,93943.41
2023-05-22T04:32:21.988Z,93945.47
2023-05-22T04:34:51.091Z,93946.78
2023-05-22T04:37:20.279Z,93953.47
2023-05-22T04:39:47.963Z,93952.06
2023-05-22T04:42:16.101Z,93953.06
2023-05-22T04:44:43.617Z,93948.66
2023-05-22T04:47:12.104Z,93955.81
2023-05-22T04:49:39.248Z,93954.53
2023-05-22T04:52:07.220Z,93950.94
2023-05-22T04:54:34.599Z,93950.44
2023-05-22T04:57:03.114Z,93959.94
2023-05-22T04:59:31.716Z,93957.88
2023-05-22T05:01:58.384Z,93959.22
2023-05-22T05:04:25.076Z,93962.63
2023-05-22T05:06:53.549Z,93955.84
2023-05-22T05:09:20.754Z,93947.16
2023-05-22T05:11:47.471Z,93951.56
2023-05-22T05:14:14.209Z,93945.56
2023-05-22T05:16:41.258Z,93959.28
2023-05-22T05:19:08.034Z,93954.44
2023-05-22T05:21:34.870Z,93962.38
2023-05-22T05:24:02.030Z,93958.25
2023-05-22T05:26:28.723Z,93958.81
2023-05-22T05:28:56.774Z,93956.66
2023-05-22T05:31:26.903Z,93959.47
2023-05-22T05:34:13.528Z,93964.28
2023-05-22T05:37:06.490Z,93959.78
2023-05-22T05:39:33.580Z,93968.44
2023-05-22T05:42:02.789Z,93963.91
2023-05-22T05:44:29.897Z,93956.97
2023-05-22T05:46:57.408Z,93953.19
2023-05-22T05:49:24.217Z,93947.81
2023-05-22T05:51:51.570Z,93960.66
2023-05-22T05:54:19.957Z,93958.78
2023-05-22T05:56:48.383Z,93962.28
2023-05-22T05:59:16.124Z,93954.59
2023-05-22T06:02:15.160Z,93963.16
2023-05-22T06:04:42.882Z,93963.19
2023-05-22T06:07:10.600Z,93969.41
2023-05-22T06:09:42.740Z,93968.25
2023-05-22T06:12:12.909Z,93959.72
2023-05-22T06:14:42.953Z,93971.00
2023-05-22T06:17:10.080Z,93971.78
2023-05-22T06:19:39.396Z,93966.69
2023-05-22T06:22:06.306Z,93969.75
2023-05-22T06:24:33.940Z,93977.13
2023-05-22T06:27:06.684Z,93973.25
2023-05-22T06:29:34.513Z,93964.31
2023-05-22T06:32:01.547Z,93971.25
2023-05-22T06:34:29.786Z,93963.44
2023-05-22T06:36:58.748Z,93965.00
2023-05-22T06:39:31.244Z,93966.09
2023-05-22T06:42:08.505Z,93960.91
2023-05-22T06:45:04.493Z,93961.16
2023-05-22T06:47:38.895Z,93963.81
2023-05-22T06:50:06.781Z,93960.63
2023-05-22T06:52:34.192Z,93970.66
2023-05-22T06:55:05.727Z,93965.06
2023-05-22T06:57:40.129Z,93963.00
2023-05-22T07:00:12.349Z,93971.22
2023-05-22T07:03:14.563Z,93965.75
2023-05-22T07:06:19.933Z,93971.19
2023-05-22T07:08:47.457Z,93976.97
2023-05-22T07:11:14.136Z,93979.63
2023-05-22T07:13:41.505Z,93969.44
2023-05-22T07:16:08.707Z,93978.72
2023-05-22T07:18:35.499Z,93972.44
2023-05-22T07:21:02.710Z,93972.34
2023-05-22T07:23:29.931Z,93984.91
2023-05-22T07:25:57.118Z,93974.72
2023-05-22T07:28:29.675Z,93980.53
2023-05-22T07:31:03.369Z,93990.31
2023-05-22T07:33:30.470Z,93982.72
2023-05-22T07:35:57.697Z,93988.22
2023-05-22T07:38:24.870Z,93984.66
2023-05-22T07:41:04.826Z,93991.41
2023-05-22T07:43:33.127Z,93986.53
2023-05-22T07:46:00.401Z,93988.31
2023-05-22T07:48:32.334Z,93985.81
2023-05-22T07:50:59.062Z,93988.59
2023-05-22T07:53:26.272Z,93978.06
2023-05-22T07:55:56.866Z,93980.22
2023-05-22T07:58:24.405Z,93979.34
2023-05-22T08:00:52.007Z,93980.56
2023-05-22T08:03:19.595Z,93977.41
2023-05-22T08:05:47.964Z,93983.47
2023-05-22T08:08:14.857Z,93974.31
2023-05-22T08:11:01.882Z,93975.66
2023-05-22T08:13:28.960Z,93980.72
2023-05-22T08:16:00.700Z,93979.09
2023-05-22T08:18:29.634Z,93979.63
2023-05-22T08:20:57.644Z,93979.91
2023-05-22T08:23:24.364Z,93983.38
2023-05-22T08:25:51.061Z,93979.19
2023-05-22T08:28:17.837Z,93987.16
2023-05-22T08:30:44.593Z,93984.25
2023-05-22T08:33:12.350Z,93973.69
2023-05-22T08:35:39.397Z,93976.88
2023-05-22T08:38:06.255Z,93976.97
2023-05-22T08:40:41.862Z,93983.25
2023-05-22T08:43:10.076Z,93979.47
2023-05-22T08:45:37.056Z,93970.41
2023-05-22T08:48:08.294Z,93974.66
2023-05-22T08:50:43.311Z,93979.00
2023-05-22T08:53:13.454Z,93975.69
2023-05-22T08:55:40.580Z,93969.50
2023-05-22T08:58:08.647Z,93976.88
2023-05-22T09:00:35.644Z,93976.66
2023-05-22T09:03:02.830Z,93972.34
2023-05-22T09:05:29.662Z,93971.53
2023-05-22T09:08:02.611Z,93977.19
2023-05-22T09:10:32.224Z,93966.75
2023-05-22T09:13:08.095Z,93974.03
2023-05-22T09:15:38.175Z,93971.38
2023-05-22T09:18:06.111Z,93971.25
2023-05-22T09:20:38.498Z,93972.75
2023-05-22T09:23:17.900Z,93973.22
2023-05-22T09:25:45.061Z,93968.81
2023-05-22T09:28:12.958Z,93976.03
2023-05-22T09:30:40.238Z,93982.19
2023-05-22T09:33:09.058Z,93980.41
2023-05-22T09:35:39.604Z,93975.56
2023-05-22T09:38:06.647Z,93982.22
2023-05-22T09:40:35.282Z,93975.97
2023-05-22T09:43:06.666Z,93973.16
2023-05-22T09:45:34.840Z,93980.66
2023-05-22T09:48:02.003Z,93970.94
2023-05-22T09:50:28.798Z,93964.66
2023-05-22T09:52:56.432Z,93968.84
2023-05-22T09:55:23.946Z,93969.00
2023-05-22T09:57:52.569Z,93970.44
2023-05-22T10:00:20.170Z,93967.16
2023-05-22T10:02:59.060Z,93966.41
2023-05-22T10:05:30.906Z,93959.41
2023-05-22T10:08:04.838Z,93965.84
2023-05-22T10:10:33.116Z,93966.59
2023-05-22T10:13:06.722Z,93962.00
2023-05-22T10:15:34.530Z,93956.94
2023-05-22T10:18:01.721Z,93963.84
2023-05-22T10:20:29.792Z,93974.59
2023-05-22T10:22:57.059Z,93968.00
2023-05-22T10:25:23.796Z,93964.16
2023-05-22T10:27:53.645Z,93963.06
2023-05-22T10:30:37.230Z,93959.38
2023-05-22T10:33:29.603Z,93963.84
2023-05-22T10:36:05.591Z,93964.25
2023-05-22T10:38:50.588Z,93965.94
2023-05-22T10:41:18.434Z,93964.03
2023-05-22T10:43:49.167Z,93963.50
2023-05-22T10:46:16.161Z,93951.25
2023-05-22T10:48:48.256Z,93960.78
2023-05-22T10:51:19.406Z,93960.41
2023-05-22T10:53:53.147Z,93957.22
2023-05-22T10:56:20.704Z,93950.25
2023-05-22T10:59:04.970Z,93957.81
2023-05-22T11:01:36.445Z,93952.47
2023-05-22T11:04:12.268Z,93954.94
2023-05-22T11:06:42.486Z,93950.69
2023-05-22T11:09:32.010Z,93948.03
2023-05-22T11:12:19.419Z,93953.28
2023-05-22T11:15:05.901Z,93945.72
2023-05-22T11:17:36.320Z,93942.84
2023-05-22T11:20:12.519Z,93941.03
2023-05-22T11:22:44.351Z,93941.00
2023-05-22T11:25:16.717Z,93940.91
2023-05-22T11:27:44.250Z,93941.03
2023-05-22T11:30:12.805Z,93934.72
2023-05-22T11:32:41.401Z,93928.00
2023-05-22T11:35:08.645Z,93930.91
2023-05-22T11:37:41.771Z,93933.66
2023-05-22T11:40:09.914Z,93928.34
2023-05-22T11:42:37.866Z,93927.19
2023-05-22T11:45:05.230Z,93926.44
2023-05-22T11:47:32.407Z,93912.97
2023-05-22T11:50:00.070Z,93925.28
2023-05-22T11:52:33.750Z,93906.94
2023-05-22T11:55:00.597Z,93914.31
2023-05-22T11:57:28.166Z,93921.28
2023-05-22T11:59:54.911Z,93912.13
2023-05-22T12:02:21.754Z,93910.00
2023-05-22T12:04:53.678Z,93901.69
2023-05-22T12:07:21.674Z,93908.28
2023-05-22T12:09:49.119Z,93907.72
2023-05-22T12:12:16.239Z,93902.00
2023-05-22T12:14:46.801Z,93890.09
2023-05-22T12:17:14.422Z,93895.09
2023-05-22T12:19:41.743Z,93903.13
2023-05-22T12:22:12.001Z,93887.84
2023-05-22T12:24:40.899Z,93888.59
2023-05-22T12:27:11.370Z,93891.47
2023-05-22T12:29:42.342Z,93895.69
2023-05-22T12:32:13.644Z,93899.88
2023-05-22T12:34:45.915Z,93895.03
2023-05-22T12:37:26.000Z,93883.28
2023-05-22T12:40:01.237Z,93880.91
2023-05-22T12:42:28.854Z,93891.44
2023-05-22T12:45:00.603Z,93889.72
2023-05-22T12:47:27.504Z,93889.59
2023-05-22T12:49:54.272Z,93886.69
2023-05-22T12:52:21.032Z,93890.81
2023-05-22T12:54:47.723Z,93888.16
2023-05-22T12:57:14.537Z,93896.59
2023-05-22T12:59:41.278Z,93882.53
2023-05-22T13:02:08.324Z,93891.16
2023-05-22T13:04:35.056Z,93887.88
2023-05-22T13:07:01.859Z,93885.84
2023-05-22T13:09:28.653Z,93885.38
2023-05-22T13:11:55.619Z,93898.25
2023-05-22T13:14:22.704Z,93890.41
2023-05-22T13:16:49.555Z,93880.00
2023-05-22T13:19:17.073Z,93881.78
2023-05-22T13:21:44.071Z,93866.38
2023-05-22T13:24:11.111Z,93884.69
2023-05-22T13:26:37.942Z,93886.56
2023-05-22T13:29:05.039Z,93879.44
2023-05-22T13:31:37.273Z,93885.31
2023-05-22T13:34:04.755Z,93879.91
2023-05-22T13:36:31.725Z,93872.88
2023-05-22T13:38:58.751Z,93884.19
2023-05-22T13:41:25.661Z,93876.09
2023-05-22T13:43:52.567Z,93885.00
2023-05-22T13:46:21.686Z,93877.31
2023-05-22T13:48:48.689Z,93887.53
2023-05-22T13:51:15.387Z,93877.09
2023-05-22T13:53:42.232Z,93883.63
2023-05-22T13:56:08.968Z,93887.00
2023-05-22T13:58:35.831Z,93879.31
2023-05-22T14:01:02.635Z,93880.88
2023-05-22T14:03:29.437Z,93892.81
2023-05-22T14:05:56.235Z,93897.97
2023-05-22T14:08:22.988Z,93897.25
2023-05-22T14:10:49.689Z,93894.66
2023-05-22T14:13:16.866Z,93899.38
2023-05-22T14:15:46.910Z,93898.91
2023-05-22T14:18:14.664Z,93886.41
2023-05-22T14:20:41.524Z,93889.84
2023-05-22T14:23:08.498Z,93881.00
2023-05-22T14:25:36.341Z,93868.94
2023-05-22T14:28:03.046Z,93865.47
2023-05-22T14:30:29.810Z,93860.34
2023-05-22T14:32:56.588Z,93850.63
2023-05-22T14:35:23.327Z,93854.41
2023-05-22T14:37:49.993Z,93849.16
2023-05-22T14:40:16.831Z,93856.19
2023-05-22T14:42:44.001Z,93859.66
2023-05-22T14:45:11.149Z,93869.50
2023-05-22T14:47:37.936Z,93854.25
2023-05-22T14:50:18.139Z,93860.63
2023-05-22T14:52:46.192Z,93877.91
2023-05-22T14:55:13.045Z,93883.03
2023-05-22T14:57:39.745Z,93894.66
2023-05-22T15:00:08.835Z,93893.19
2023-05-22T15:02:37.169Z,93898.09
2023-05-22T15:05:04.538Z,93908.91
2023-05-22T15:07:43.220Z,93915.75
2023-05-22T15:10:11.170Z,93915.31
2023-05-22T15:12:37.955Z,93916.38
2023-05-22T15:15:05.112Z,93918.78
2023-05-22T15:17:31.899Z,93904.66
2023-05-22T15:19:58.624Z,93900.34
2023-05-22T15:22:25.293Z,93895.28
2023-05-22T15:25:06.995Z,93915.69
2023-05-22T15:27:37.655Z,93909.56
2023-05-22T15:30:05.847Z,93911.94
2023-05-22T15:32:33.172Z,93913.84
2023-05-22T15:35:00.141Z,93902.41
2023-05-22T15:37:27.951Z,93912.66
2023-05-22T15:39:55.844Z,93910.84
2023-05-22T15:42:22.496Z,93909.84
2023-05-22T15:44:49.228Z,93911.50
2023-05-22T15:47:16.716Z,93910.09
2023-05-22T15:49:43.415Z,93901.38
2023-05-22T15:52:10.152Z,93910.41
2023-05-22T15:54:36.896Z,93907.66
2023-05-22T15:57:03.749Z,93918.06
2023-05-22T15:59:30.591Z,93908.00
2023-05-22T16:01:57.274Z,93907.16
2023-05-22T16:04:24.019Z,93903.72
2023-05-22T16:06:50.842Z,93903.78
2023-05-22T16:09:19.427Z,93921.66
2023-05-22T16:11:46.294Z,93946.16
2023-05-22T16:14:13.271Z,93969.63
2023-05-22T16:16:40.216Z,93978.69
2023-05-22T16:19:06.963Z,93992.28
2023-05-22T16:21:33.699Z,93990.78
2023-05-22T16:24:00.459Z,93990.38
2023-05-22T16:26:27.245Z,93985.31
2023-05-22T16:28:53.917Z,93974.06
2023-05-22T16:31:20.852Z,93963.63
2023-05-22T16:33:47.623Z,93972.94
2023-05-22T16:36:14.429Z,93969.06
2023-05-22T16:38:41.995Z,93964.38
2023-05-22T16:41:08.741Z,93954.28
2023-05-22T16:43:36.749Z,93948.47
2023-05-22T16:46:03.553Z,93944.19
2023-05-22T16:48:30.327Z,93913.53
2023-05-22T16:50:57.073Z,93930.59
2023-05-22T16:53:23.765Z,93930.22
2023-05-22T16:55:50.479Z,93929.44
2023-05-22T16:58:17.228Z,93923.22
2023-05-22T17:00:44.119Z,93906.88
2023-05-22T17:03:12.148Z,93910.34
2023-05-22T17:05:39.334Z,93912.25
2023-05-22T17:08:06.694Z,93912.66
2023-05-22T17:10:33.396Z,93918.50
2023-05-22T17:13:00.118Z,93907.19
2023-05-22T17:15:27.007Z,93888.22
2023-05-22T17:17:53.798Z,93893.72
2023-05-22T17:20:22.875Z,93880.91
2023-05-22T17:22:49.821Z,93891.81
2023-05-22T17:25:16.664Z,93889.06
2023-05-22T17:27:43.487Z,93881.31
2023-05-22T17:30:11.202Z,93879.78
2023-05-22T17:32:38.162Z,93881.69
2023-05-22T17:35:06.842Z,93889.06
2023-05-22T17:37:34.085Z,93885.94
2023-05-22T17:40:00.986Z,93887.88
2023-05-22T17:42:27.680Z,93888.22
2023-05-22T17:44:54.402Z,93902.59
2023-05-22T17:47:21.370Z,93887.88
2023-05-22T17:49:48.215Z,93901.47
2023-05-22T17:52:14.964Z,93907.31
2023-05-22T17:54:41.718Z,93918.19
2023-05-22T17:57:08.464Z,93915.47
2023-05-22T17:59:35.757Z,93901.88
2023-05-22T18:02:03.423Z,93910.03
2023-05-22T18:04:30.129Z,93906.13
2023-05-22T18:06:56.844Z,93931.75
2023-05-22T18:09:23.548Z,93922.44
2023-05-22T18:11:52.573Z,93931.00
2023-05-22T18:14:19.731Z,93916.25
2023-05-22T18:16:46.499Z,93920.91
2023-05-22T18:19:13.230Z,93938.00
2023-05-22T18:21:39.970Z,93926.34
2023-05-22T18:24:06.714Z,93929.44
2023-05-22T18:26:33.451Z,93933.75
2023-05-22T18:29:00.148Z,93935.25
2023-05-22T18:31:26.917Z,93934.88
2023-05-22T18:33:53.665Z,93931.38
2023-05-22T18:36:20.695Z,93941.47
2023-05-22T18:38:47.374Z,93937.97
2023-05-22T18:41:14.087Z,93945.00
2023-05-22T18:43:40.758Z,93951.97
2023-05-22T18:46:07.540Z,93952.34
2023-05-22T18:48:34.223Z,93939.53
2023-05-22T18:51:01.154Z,93960.88
2023-05-22T18:53:27.976Z,93958.16
2023-05-22T18:55:54.762Z,93967.06
2023-05-22T18:58:21.699Z,93970.16
2023-05-22T19:00:48.608Z,93971.31
2023-05-22T19:03:15.529Z,93966.63
2023-05-22T19:05:43.114Z,93981.75
2023-05-22T19:08:09.861Z,93962.69
2023-05-22T19:10:36.521Z,93979.75
2023-05-22T19:13:03.986Z,93970.44
2023-05-22T19:15:30.811Z,93968.47
2023-05-22T19:17:57.750Z,93980.88
2023-05-22T19:20:24.562Z,93977.31
2023-05-22T19:22:51.557Z,93977.69
2023-05-22T19:25:18.528Z,93980.41
2023-05-22T19:27:45.969Z,93986.59
2023-05-22T19:30:15.306Z,93981.53
2023-05-22T19:32:45.335Z,93967.94
2023-05-22T19:35:12.204Z,93964.81
2023-05-22T19:37:38.912Z,93976.84
2023-05-22T19:40:06.208Z,93978.38
2023-05-22T19:42:33.126Z,93977.22
2023-05-22T19:44:59.914Z,93986.53
2023-05-22T19:47:27.400Z,93990.44
2023-05-22T19:49:54.176Z,93964.03
2023-05-22T19:52:20.990Z,93963.25
2023-05-22T19:54:47.681Z,93983.44
2023-05-22T19:57:14.422Z,93965.59
2023-05-22T19:59:41.143Z,93958.63
2023-05-22T20:02:07.932Z,93972.16
2023-05-22T20:04:34.872Z,93970.63
2023-05-22T20:07:03.757Z,93967.09
2023-05-22T20:09:30.537Z,93973.69
2023-05-22T20:11:57.319Z,93963.97
2023-05-22T20:14:24.004Z,93971.34
2023-05-22T20:16:51.220Z,93970.16
2023-05-22T20:19:18.057Z,93969.75
2023-05-22T20:21:44.786Z,93974.78
2023-05-22T20:24:21.008Z,93976.34
2023-05-22T20:26:48.013Z,93981.75
2023-05-22T20:29:14.939Z,93977.91
2023-05-22T20:31:41.804Z,93981.75
2023-05-22T20:34:09.624Z,93979.44
2023-05-22T20:36:36.656Z,93980.59
2023-05-22T20:39:03.635Z,93971.22
2023-05-22T20:41:30.322Z,93972.34
2023-05-22T20:43:58.690Z,93962.16
2023-05-22T20:46:26.598Z,93985.03
2023-05-22T20:48:53.793Z,93977.25
2023-05-22T20:51:20.947Z,93978.78
2023-05-22T20:53:51.541Z,93979.94
2023-05-22T20:56:18.251Z,93989.22
2023-05-22T20:58:45.006Z,93997.75
2023-05-22T21:01:11.743Z,94001.19
2023-05-22T21:03:38.536Z,93999.22
2023-05-22T21:06:05.527Z,94007.34
2023-05-22T21:08:32.638Z,93999.97
2023-05-22T21:10:59.278Z,93999.59
2023-05-22T21:13:26.020Z,93996.50
2023-05-22T21:15:52.699Z,94004.63
2023-05-22T21:18:19.936Z,93997.59
2023-05-22T21:20:46.881Z,94015.81
2023-05-22T21:23:13.691Z,94004.13
2023-05-22T21:25:40.517Z,94012.66
2023-05-22T21:28:07.964Z,94006.06
2023-05-22T21:30:34.711Z,94012.22
2023-05-22T21:33:01.947Z,94019.94
2023-05-22T21:35:28.883Z,94015.31
2023-05-22T21:37:55.665Z,94017.59
2023-05-22T21:40:22.421Z,94020.69
2023-05-22T21:42:49.177Z,94027.25
2023-05-22T21:45:15.877Z,94033.03
2023-05-22T21:47:42.622Z,94025.66
2023-05-22T21:50:10.129Z,94021.75
2023-05-22T21:52:36.799Z,94032.94
2023-05-22T21:55:04.088Z,94034.88
2023-05-22T21:57:31.089Z,94033.00
2023-05-22T21:59:57.760Z,94038.81
2023-05-22T22:02:24.697Z,94046.19
2023-05-22T22:04:51.769Z,94042.34
2023-05-22T22:07:18.610Z,94038.06
2023-05-22T22:09:45.685Z,94041.56
2023-05-22T22:12:12.594Z,94043.44
2023-05-22T22:14:39.340Z,94037.63
2023-05-22T22:17:07.998Z,94043.44
2023-05-22T22:19:36.136Z,94039.56
2023-05-22T22:22:03.262Z,94040.75
2023-05-22T22:24:48.526Z,94042.75
2023-05-22T22:27:15.595Z,94031.38
2023-05-22T22:29:43.670Z,94039.59
2023-05-22T22:32:10.634Z,94047.34
2023-05-22T22:34:37.673Z,94045.41
2023-05-22T22:37:06.219Z,94052.78
2023-05-22T22:39:32.956Z,94045.41
2023-05-22T22:42:04.191Z,94042.25
2023-05-22T22:44:32.289Z,94046.19
2023-05-22T22:46:59.257Z,94048.88
2023-05-22T22:49:25.927Z,94056.22
2023-05-22T22:51:52.676Z,94050.41
2023-05-22T22:54:19.456Z,94054.69
2023-05-22T22:56:47.080Z,94066.72
2023-05-22T22:59:13.853Z,94064.75
2023-05-22T23:01:40.717Z,94049.16
2023-05-22T23:04:07.758Z,94063.88
2023-05-22T23:06:34.648Z,94060.34
2023-05-22T23:09:03.979Z,94068.47
2023-05-22T23:11:37.381Z,94059.09
2023-05-22T23:14:08.565Z,94065.66
2023-05-22T23:16:42.261Z,94065.16
2023-05-22T23:19:10.568Z,94064.78
2023-05-22T23:21:37.596Z,94062.47
2023-05-22T23:24:04.712Z,94065.94
2023-05-22T23:26:32.327Z,94055.13
2023-05-22T23:28:59.785Z,94060.53
2023-05-22T23:31:30.317Z,94065.56
2023-05-22T23:33:58.159Z,94055.13
2023-05-22T23:36:25.425Z,94069.06
2023-05-22T23:38:52.185Z,94067.88
2023-05-22T23:41:19.184Z,94060.53
2023-05-22T23:43:46.375Z,94063.19
2023-05-22T23:46:14.235Z,94059.31
2023-05-22T23:48:42.163Z,94060.84
2023-05-22T23:51:10.166Z,94061.94
2023-05-22T23:53:37.189Z,94060.38
2023-05-22T23:56:04.814Z,94059.59
2023-05-22T23:58:32.269Z,94060.38
